createdAt,value
2023-04-20T00:01:24.916Z,7.70
2023-04-20T00:03:53.032Z,7.57
2023-04-20T00:06:22.009Z,7.56
2023-04-20T00:08:51.906Z,7.46
2023-04-20T00:11:20.552Z,7.36
2023-04-20T00:13:48.356Z,7.27
2023-04-20T00:16:16.227Z,7.23
2023-04-20T00:18:46.771Z,7.13
2023-04-20T00:21:15.307Z,7.10
2023-04-20T00:23:43.520Z,7.08
2023-04-20T00:26:11.379Z,7.00
2023-04-20T00:28:40.553Z,6.98
2023-04-20T00:31:08.543Z,6.93
2023-04-20T00:33:36.498Z,6.92
2023-04-20T00:36:04.464Z,6.91
2023-04-20T00:38:32.513Z,6.95
2023-04-20T00:41:01.008Z,6.93
2023-04-20T00:43:28.817Z,6.95
2023-04-20T00:45:56.728Z,6.93
2023-04-20T00:48:24.742Z,6.93
2023-04-20T00:50:53.606Z,6.95
2023-04-20T00:53:21.707Z,6.87
2023-04-20T00:55:51.821Z,6.95
2023-04-20T00:58:19.645Z,6.96
2023-04-20T01:00:47.489Z,6.98
2023-04-20T01:03:15.578Z,6.93
2023-04-20T01:05:43.819Z,6.92
2023-04-20T01:08:11.579Z,6.93
2023-04-20T01:10:39.352Z,6.85
2023-04-20T01:13:07.976Z,6.77
2023-04-20T01:15:35.991Z,6.79
2023-04-20T01:18:03.822Z,6.84
2023-04-20T01:20:34.736Z,6.81
2023-04-20T01:23:02.850Z,6.82
2023-04-20T01:25:34.601Z,6.81
2023-04-20T01:28:02.479Z,6.68
2023-04-20T01:30:31.204Z,6.63
2023-04-20T01:32:59.033Z,6.52
2023-04-20T01:35:27.058Z,6.45
2023-04-20T01:37:54.872Z,6.38
2023-04-20T01:40:22.928Z,6.37
2023-04-20T01:42:50.788Z,6.29
2023-04-20T01:45:18.574Z,6.23
2023-04-20T01:47:46.352Z,6.20
2023-04-20T01:50:14.429Z,6.12
2023-04-20T01:52:42.248Z,6.16
2023-04-20T01:55:11.781Z,6.21
2023-04-20T01:57:39.484Z,6.33
2023-04-20T02:00:08.968Z,6.36
2023-04-20T02:02:42.217Z,6.42
2023-04-20T02:05:10.817Z,6.52
2023-04-20T02:07:38.808Z,6.60
2023-04-20T02:10:07.855Z,6.64
2023-04-20T02:12:36.676Z,6.74
2023-04-20T02:15:07.181Z,6.75
2023-04-20T02:17:36.816Z,6.78
2023-04-20T02:20:11.324Z,6.82
2023-04-20T02:22:39.390Z,6.82
2023-04-20T02:25:10.822Z,6.78
2023-04-20T02:27:38.624Z,6.74
2023-04-20T02:30:08.606Z,6.65
2023-04-20T02:32:36.776Z,6.74
2023-04-20T02:35:04.862Z,6.82
2023-04-20T02:37:32.876Z,6.91
2023-04-20T02:40:00.861Z,6.99
2023-04-20T02:42:29.988Z,6.92
2023-04-20T02:45:03.022Z,7.00
2023-04-20T02:47:34.613Z,7.09
2023-04-20T02:50:04.174Z,7.06
2023-04-20T02:52:36.670Z,7.03
2023-04-20T02:55:04.842Z,6.99
2023-04-20T02:57:33.270Z,7.00
2023-04-20T03:00:04.659Z,7.05
2023-04-20T03:02:50.095Z,7.09
2023-04-20T03:05:18.548Z,7.00
2023-04-20T03:07:46.351Z,7.10
2023-04-20T03:10:14.352Z,7.19
2023-04-20T03:12:52.401Z,7.13
2023-04-20T03:15:38.325Z,7.20
2023-04-20T03:18:15.501Z,7.16
2023-04-20T03:20:43.316Z,7.16
2023-04-20T03:23:11.273Z,7.20
2023-04-20T03:25:39.308Z,7.22
2023-04-20T03:28:17.288Z,7.24
2023-04-20T03:30:45.109Z,7.30
2023-04-20T03:33:16.899Z,7.31
2023-04-20T03:35:44.649Z,7.33
2023-04-20T03:38:12.476Z,7.31
2023-04-20T03:40:40.355Z,7.36
2023-04-20T03:43:08.059Z,7.27
2023-04-20T03:45:36.256Z,7.27
2023-04-20T03:48:04.655Z,7.27
2023-04-20T03:50:32.498Z,7.24
2023-04-20T03:53:02.546Z,7.18
2023-04-20T03:55:31.158Z,7.20
2023-04-20T03:58:07.115Z,7.20
2023-04-20T04:01:01.154Z,7.18
2023-04-20T04:03:29.755Z,7.18
2023-04-20T04:05:57.699Z,7.16
2023-04-20T04:08:26.812Z,7.19
2023-04-20T04:10:55.564Z,7.18
2023-04-20T04:13:23.352Z,7.23
2023-04-20T04:15:51.173Z,7.31
2023-04-20T04:18:19.015Z,7.34
2023-04-20T04:20:47.465Z,7.31
2023-04-20T04:23:16.465Z,7.33
2023-04-20T04:25:50.425Z,7.31
2023-04-20T04:28:24.019Z,7.44
2023-04-20T04:31:19.562Z,7.42
2023-04-20T04:33:47.991Z,7.33
2023-04-20T04:36:28.595Z,7.39
2023-04-20T04:38:59.382Z,7.40
2023-04-20T04:41:28.757Z,7.34
2023-04-20T04:44:06.451Z,7.18
2023-04-20T04:46:36.964Z,7.00
2023-04-20T04:49:05.880Z,7.15
2023-04-20T04:51:33.882Z,7.05
2023-04-20T04:54:01.948Z,6.93
2023-04-20T04:56:29.840Z,6.87
2023-04-20T04:58:57.668Z,6.95
2023-04-20T05:01:25.534Z,6.85
2023-04-20T05:03:53.537Z,6.69
2023-04-20T05:06:22.773Z,6.52
2023-04-20T05:08:50.593Z,6.54
2023-04-20T05:11:19.424Z,6.54
2023-04-20T05:13:48.637Z,6.55
2023-04-20T05:16:16.481Z,6.44
2023-04-20T05:18:44.352Z,6.45
2023-04-20T05:21:12.482Z,6.54
2023-04-20T05:23:41.569Z,6.51
2023-04-20T05:26:09.466Z,6.55
2023-04-20T05:28:37.297Z,6.55
2023-04-20T05:31:05.210Z,6.61
2023-04-20T05:33:33.150Z,6.64
2023-04-20T05:36:01.191Z,6.75
2023-04-20T05:38:29.147Z,6.74
2023-04-20T05:40:57.203Z,6.81
2023-04-20T05:43:25.135Z,6.78
2023-04-20T05:45:52.950Z,6.87
2023-04-20T05:48:20.691Z,6.91
2023-04-20T05:50:48.443Z,6.89
2023-04-20T05:53:16.126Z,6.89
2023-04-20T05:55:43.881Z,6.91
2023-04-20T05:58:12.004Z,6.95
2023-04-20T06:00:43.126Z,6.96
2023-04-20T06:03:10.998Z,7.05
2023-04-20T06:05:39.155Z,7.08
2023-04-20T06:08:07.013Z,7.02
2023-04-20T06:10:35.229Z,6.96
2023-04-20T06:13:03.261Z,6.95
2023-04-20T06:15:33.235Z,6.98
2023-04-20T06:18:01.970Z,6.91
2023-04-20T06:20:30.129Z,6.91
2023-04-20T06:22:58.424Z,6.88
2023-04-20T06:25:26.207Z,6.81
2023-04-20T06:27:54.497Z,6.77
2023-04-20T06:30:22.492Z,6.85
2023-04-20T06:32:50.743Z,6.65
2023-04-20T06:35:21.822Z,6.69
2023-04-20T06:37:49.832Z,6.79
2023-04-20T06:40:18.014Z,6.67
2023-04-20T06:42:46.616Z,6.75
2023-04-20T06:45:14.464Z,6.75
2023-04-20T06:47:42.633Z,6.82
2023-04-20T06:50:11.205Z,6.88
2023-04-20T06:52:41.010Z,6.99
2023-04-20T06:55:09.664Z,7.10
2023-04-20T06:57:44.783Z,7.03
2023-04-20T07:00:13.339Z,7.06
2023-04-20T07:02:49.588Z,7.16
2023-04-20T07:05:18.715Z,7.31
2023-04-20T07:07:46.776Z,7.44
2023-04-20T07:10:16.179Z,7.44
2023-04-20T07:12:44.694Z,7.51
2023-04-20T07:15:13.116Z,7.60
2023-04-20T07:17:44.537Z,7.50
2023-04-20T07:20:12.879Z,7.53
2023-04-20T07:22:40.719Z,7.61
2023-04-20T07:25:10.734Z,7.70
2023-04-20T07:27:40.922Z,7.74
2023-04-20T07:30:10.780Z,7.77
2023-04-20T07:32:41.220Z,7.78
2023-04-20T07:35:09.805Z,7.71
2023-04-20T07:37:37.684Z,7.74
2023-04-20T07:40:07.473Z,7.74
2023-04-20T07:42:38.919Z,7.82
2023-04-20T07:45:11.683Z,7.84
2023-04-20T07:47:40.045Z,7.89
2023-04-20T07:50:08.896Z,7.77
2023-04-20T07:52:36.898Z,7.85
2023-04-20T07:55:06.141Z,7.78
2023-04-20T07:57:34.627Z,7.79
2023-04-20T08:00:04.498Z,7.81
2023-04-20T08:02:41.198Z,7.81
2023-04-20T08:05:12.592Z,7.89
2023-04-20T08:07:41.050Z,7.94
2023-04-20T08:10:10.558Z,7.98
2023-04-20T08:12:40.203Z,8.01
2023-04-20T08:15:09.020Z,8.01
2023-04-20T08:17:37.893Z,8.01
2023-04-20T08:20:06.529Z,8.03
2023-04-20T08:22:34.591Z,7.94
2023-04-20T08:25:05.881Z,8.03
2023-04-20T08:27:33.999Z,8.08
2023-04-20T08:30:04.463Z,8.03
2023-04-20T08:32:32.709Z,7.74
2023-04-20T08:35:00.976Z,7.70
2023-04-20T08:37:29.969Z,7.79
2023-04-20T08:39:59.304Z,7.71
2023-04-20T08:42:27.168Z,7.66
2023-04-20T08:44:55.054Z,7.63
2023-04-20T08:47:23.394Z,7.70
2023-04-20T08:49:55.071Z,7.82
2023-04-20T08:52:23.154Z,7.68
2023-04-20T08:54:56.695Z,7.66
2023-04-20T08:57:26.373Z,7.56
2023-04-20T08:59:55.951Z,7.63
2023-04-20T09:02:24.284Z,7.58
2023-04-20T09:05:05.558Z,7.40
2023-04-20T09:07:33.817Z,7.44
2023-04-20T09:10:02.734Z,7.48
2023-04-20T09:12:42.279Z,7.51
2023-04-20T09:15:11.177Z,7.66
2023-04-20T09:17:41.358Z,7.58
2023-04-20T09:20:11.443Z,7.51
2023-04-20T09:22:39.666Z,7.54
2023-04-20T09:25:15.338Z,7.60
2023-04-20T09:27:43.214Z,7.57
2023-04-20T09:30:12.206Z,7.50
2023-04-20T09:32:40.102Z,7.46
2023-04-20T09:35:11.495Z,7.37
2023-04-20T09:37:48.889Z,7.40
2023-04-20T09:40:18.696Z,7.36
2023-04-20T09:42:50.147Z,7.31
2023-04-20T09:45:18.852Z,7.27
2023-04-20T09:47:50.068Z,7.08
2023-04-20T09:50:26.814Z,7.20
2023-04-20T09:52:58.177Z,7.16
2023-04-20T09:55:27.677Z,7.34
2023-04-20T09:57:56.894Z,7.51
2023-04-20T10:00:27.536Z,7.47
2023-04-20T10:02:55.956Z,7.54
2023-04-20T10:05:44.157Z,7.77
2023-04-20T10:08:12.516Z,7.68
2023-04-20T10:10:51.003Z,7.84
2023-04-20T10:13:20.585Z,7.94
2023-04-20T10:15:53.315Z,8.08
2023-04-20T10:18:25.345Z,8.21
2023-04-20T10:21:09.955Z,8.13
2023-04-20T10:23:51.951Z,8.24
2023-04-20T10:26:20.672Z,8.39
2023-04-20T10:28:48.786Z,8.42
2023-04-20T10:31:17.229Z,8.36
2023-04-20T10:33:52.958Z,8.17
2023-04-20T10:36:32.397Z,8.16
2023-04-20T10:39:05.552Z,8.30
2023-04-20T10:41:33.409Z,8.33
2023-04-20T10:44:10.736Z,8.37
2023-04-20T10:46:38.876Z,8.57
2023-04-20T10:49:06.805Z,8.70
2023-04-20T10:51:34.529Z,8.80
2023-04-20T10:54:08.184Z,8.88
2023-04-20T10:56:40.298Z,8.78
2023-04-20T10:59:10.307Z,8.47
2023-04-20T11:01:38.992Z,8.06
2023-04-20T11:04:07.667Z,7.47
2023-04-20T11:06:36.242Z,7.63
2023-04-20T11:09:04.397Z,7.94
2023-04-20T11:11:32.504Z,8.19
2023-04-20T11:14:10.043Z,8.32
2023-04-20T11:19:10.294Z,8.87
2023-04-20T11:21:42.989Z,8.98
2023-04-20T11:24:22.218Z,8.95
2023-04-20T11:26:51.229Z,8.60
2023-04-20T11:29:34.267Z,8.37
2023-04-20T11:32:04.851Z,7.67
2023-04-20T11:34:34.100Z,7.48
2023-04-20T11:37:20.040Z,7.70
2023-04-20T11:39:47.788Z,7.91
2023-04-20T11:42:15.758Z,8.59
2023-04-20T11:44:43.703Z,9.95
2023-04-20T11:47:11.519Z,10.96
2023-04-20T11:49:39.309Z,11.42
2023-04-20T11:52:07.263Z,11.85
2023-04-20T11:54:35.432Z,12.40
2023-04-20T11:57:04.491Z,12.57
2023-04-20T11:59:32.342Z,12.68
2023-04-20T12:02:04.226Z,13.44
2023-04-20T12:04:34.625Z,12.88
2023-04-20T12:07:03.386Z,12.47
2023-04-20T12:09:36.438Z,12.07
2023-04-20T12:12:05.846Z,11.35
2023-04-20T12:14:34.229Z,10.66
2023-04-20T12:17:04.262Z,10.75
2023-04-20T12:19:32.781Z,10.93
2023-04-20T12:22:00.678Z,10.66
2023-04-20T12:24:28.852Z,10.45
2023-04-20T12:26:57.927Z,10.14
2023-04-20T12:29:25.719Z,10.28
2023-04-20T12:31:53.704Z,10.39
2023-04-20T12:34:21.767Z,10.63
2023-04-20T12:36:49.552Z,10.49
2023-04-20T12:39:17.649Z,10.37
2023-04-20T12:41:45.860Z,10.31
2023-04-20T12:44:13.647Z,10.18
2023-04-20T12:46:41.935Z,9.77
2023-04-20T12:49:09.918Z,9.43
2023-04-20T12:51:37.800Z,9.29
2023-04-20T12:54:06.034Z,9.33
2023-04-20T12:56:34.049Z,9.40
2023-04-20T12:59:02.102Z,10.00
2023-04-20T13:01:29.983Z,10.52
2023-04-20T13:03:58.087Z,11.17
2023-04-20T13:06:27.038Z,10.97
2023-04-20T13:08:55.103Z,10.83
2023-04-20T13:11:22.891Z,10.60
2023-04-20T13:13:51.991Z,10.65
2023-04-20T13:16:19.854Z,10.84
2023-04-20T13:18:47.925Z,10.96
2023-04-20T13:21:16.717Z,11.61
2023-04-20T13:23:44.563Z,11.71
2023-04-20T13:26:12.894Z,12.37
2023-04-20T13:28:40.800Z,12.84
2023-04-20T13:31:09.045Z,13.53
2023-04-20T13:33:36.854Z,14.17
2023-04-20T13:36:04.770Z,14.36
2023-04-20T13:38:32.523Z,14.87
2023-04-20T13:41:00.398Z,14.93
2023-04-20T13:43:30.859Z,15.12
2023-04-20T13:45:58.886Z,14.65
2023-04-20T13:48:26.911Z,14.94
2023-04-20T13:50:55.043Z,15.51
2023-04-20T13:53:22.924Z,14.87
2023-04-20T13:55:50.953Z,14.84
2023-04-20T13:58:21.172Z,13.84
2023-04-20T14:00:49.085Z,12.91
2023-04-20T14:03:18.827Z,12.19
2023-04-20T14:05:46.695Z,13.19
2023-04-20T14:08:14.963Z,13.92
2023-04-20T14:10:43.281Z,14.22
2023-04-20T14:13:11.548Z,13.64
2023-04-20T14:15:39.447Z,13.03
2023-04-20T14:18:07.425Z,12.77
2023-04-20T14:20:36.316Z,13.20
2023-04-20T14:23:04.411Z,13.70
2023-04-20T14:25:32.461Z,13.30
2023-04-20T14:28:00.973Z,13.68
2023-04-20T14:30:29.401Z,14.32
2023-04-20T14:32:59.385Z,13.39
2023-04-20T14:35:28.556Z,13.66
2023-04-20T14:37:56.405Z,13.19
2023-04-20T14:40:24.284Z,12.60
2023-04-20T14:42:52.967Z,13.06
2023-04-20T14:45:21.021Z,13.94
2023-04-20T14:47:57.072Z,14.80
2023-04-20T14:50:29.977Z,14.86
2023-04-20T14:52:58.020Z,14.65
2023-04-20T14:55:26.200Z,14.43
2023-04-20T14:57:57.506Z,14.65
2023-04-20T15:00:30.388Z,14.57
2023-04-20T15:02:59.899Z,14.33
2023-04-20T15:05:28.609Z,14.65
2023-04-20T15:07:58.451Z,14.75
2023-04-20T15:10:26.434Z,14.80
2023-04-20T15:12:54.250Z,14.21
2023-04-20T15:15:22.357Z,13.59
2023-04-20T15:17:50.417Z,13.40
2023-04-20T15:20:18.585Z,13.26
2023-04-20T15:22:46.458Z,13.03
2023-04-20T15:25:14.488Z,12.88
2023-04-20T15:27:42.317Z,12.91
2023-04-20T15:30:10.848Z,12.63
2023-04-20T15:32:38.848Z,12.57
2023-04-20T15:35:06.836Z,12.53
2023-04-20T15:37:34.596Z,12.54
2023-04-20T15:40:02.859Z,12.51
2023-04-20T15:42:30.723Z,12.54
2023-04-20T15:44:58.582Z,12.51
2023-04-20T15:47:26.537Z,12.91
2023-04-20T15:50:01.812Z,13.13
2023-04-20T15:52:32.052Z,13.36
2023-04-20T15:55:00.383Z,13.50
2023-04-20T15:57:29.880Z,13.22
2023-04-20T15:59:57.971Z,13.08
2023-04-20T16:02:25.956Z,12.75
2023-04-20T16:04:54.098Z,12.72
2023-04-20T16:07:22.438Z,12.43
2023-04-20T16:09:50.353Z,12.13
2023-04-20T16:12:18.348Z,11.95
2023-04-20T16:14:46.152Z,11.86
2023-04-20T16:17:14.224Z,11.64
2023-04-20T16:19:42.352Z,11.52
2023-04-20T16:22:10.277Z,11.52
2023-04-20T16:24:38.026Z,11.52
2023-04-20T16:27:05.766Z,11.62
2023-04-20T16:29:33.784Z,11.71
2023-04-20T16:32:02.153Z,11.65
2023-04-20T16:34:31.775Z,11.74
2023-04-20T16:36:59.789Z,11.71
2023-04-20T16:39:27.614Z,11.66
2023-04-20T16:41:55.595Z,11.72
2023-04-20T16:44:23.523Z,11.92
2023-04-20T16:46:51.954Z,12.03
2023-04-20T16:49:19.960Z,12.10
2023-04-20T16:51:48.192Z,12.24
2023-04-20T16:54:16.390Z,12.24
2023-04-20T16:56:44.303Z,12.47
2023-04-20T16:59:12.204Z,12.34
2023-04-20T17:01:40.133Z,12.26
2023-04-20T17:04:08.269Z,12.17
2023-04-20T17:06:36.359Z,12.09
2023-04-20T17:09:05.790Z,11.83
2023-04-20T17:11:38.957Z,11.86
2023-04-20T17:14:08.544Z,11.81
2023-04-20T17:16:36.442Z,11.76
2023-04-20T17:19:04.740Z,11.62
2023-04-20T17:21:32.835Z,11.48
2023-04-20T17:24:00.788Z,11.54
2023-04-20T17:26:28.685Z,11.41
2023-04-20T17:28:56.577Z,11.39
2023-04-20T17:31:25.520Z,11.31
2023-04-20T17:33:53.392Z,11.31
2023-04-20T17:36:21.177Z,11.18
2023-04-20T17:38:49.320Z,11.24
2023-04-20T17:41:17.318Z,11.16
2023-04-20T17:43:45.164Z,11.11
2023-04-20T17:46:13.307Z,11.01
2023-04-20T17:48:42.122Z,10.93
2023-04-20T17:51:09.875Z,10.92
2023-04-20T17:53:37.697Z,10.97
2023-04-20T17:56:06.460Z,10.92
2023-04-20T17:58:34.300Z,10.92
2023-04-20T18:01:02.206Z,11.00
2023-04-20T18:03:30.435Z,11.07
2023-04-20T18:05:58.307Z,11.23
2023-04-20T18:08:26.211Z,11.28
2023-04-20T18:10:53.996Z,11.37
2023-04-20T18:13:21.795Z,11.35
2023-04-20T18:15:49.609Z,11.16
2023-04-20T18:18:21.736Z,10.87
2023-04-20T18:20:49.768Z,10.53
2023-04-20T18:23:17.988Z,10.25
2023-04-20T18:25:46.372Z,10.12
2023-04-20T18:28:14.345Z,9.98
2023-04-20T18:30:42.491Z,9.84
2023-04-20T18:33:10.563Z,9.80
2023-04-20T18:35:38.400Z,9.72
2023-04-20T18:38:07.745Z,9.73
2023-04-20T18:40:35.972Z,9.69
2023-04-20T18:43:03.888Z,9.70
2023-04-20T18:45:34.839Z,9.57
2023-04-20T18:48:03.164Z,9.66
2023-04-20T18:50:31.081Z,9.52
2023-04-20T18:52:58.867Z,9.56
2023-04-20T18:55:26.604Z,9.43
2023-04-20T18:57:54.620Z,9.40
2023-04-20T19:00:22.639Z,9.40
2023-04-20T19:02:50.904Z,9.32
2023-04-20T19:05:18.744Z,9.32
2023-04-20T19:07:47.205Z,9.28
2023-04-20T19:10:16.354Z,9.29
2023-04-20T19:12:44.518Z,9.22
2023-04-20T19:15:12.457Z,9.28
2023-04-20T19:17:40.381Z,9.11
2023-04-20T19:20:09.030Z,9.08
2023-04-20T19:22:36.781Z,9.11
2023-04-20T19:25:05.130Z,9.14
2023-04-20T19:27:33.142Z,9.14
2023-04-20T19:30:01.107Z,9.12
2023-04-20T19:32:29.102Z,9.04
2023-04-20T19:34:59.338Z,9.07
2023-04-20T19:37:28.404Z,9.11
2023-04-20T19:39:56.171Z,9.15
2023-04-20T19:42:24.046Z,9.28
2023-04-20T19:44:53.576Z,9.26
2023-04-20T19:47:21.654Z,9.28
2023-04-20T19:49:50.245Z,9.36
2023-04-20T19:52:18.566Z,9.43
2023-04-20T19:54:46.492Z,9.43
2023-04-20T19:57:14.480Z,9.36
2023-04-20T19:59:42.675Z,9.22
2023-04-20T20:02:10.707Z,9.38
2023-04-20T20:04:39.375Z,9.46
2023-04-20T20:07:08.537Z,9.50
2023-04-20T20:09:36.661Z,9.49
2023-04-20T20:12:07.065Z,9.43
2023-04-20T20:14:36.500Z,9.35
2023-04-20T20:17:06.759Z,9.18
2023-04-20T20:19:34.966Z,9.21
2023-04-20T20:22:03.207Z,9.21
2023-04-20T20:24:31.108Z,9.33
2023-04-20T20:26:59.233Z,9.43
2023-04-20T20:29:27.196Z,9.43
2023-04-20T20:31:55.316Z,9.52
2023-04-20T20:34:23.060Z,9.53
2023-04-20T20:36:51.476Z,9.53
2023-04-20T20:39:19.657Z,9.50
2023-04-20T20:41:47.734Z,9.53
2023-04-20T20:44:16.196Z,9.57
2023-04-20T20:46:44.336Z,9.42
2023-04-20T20:49:12.235Z,9.44
2023-04-20T20:51:40.073Z,9.29
2023-04-20T20:54:08.083Z,9.31
2023-04-20T20:56:36.530Z,9.36
2023-04-20T20:59:04.299Z,9.32
2023-04-20T21:01:32.335Z,9.39
2023-04-20T21:04:00.718Z,9.16
2023-04-20T21:06:28.651Z,9.22
2023-04-20T21:08:56.874Z,8.92
2023-04-20T21:11:24.608Z,8.80
2023-04-20T21:13:52.436Z,8.70
2023-04-20T21:16:20.355Z,8.77
2023-04-20T21:18:48.134Z,8.80
2023-04-20T21:21:16.723Z,8.75
2023-04-20T21:23:44.653Z,8.66
2023-04-20T21:26:12.462Z,8.53
2023-04-20T21:28:40.688Z,8.60
2023-04-20T21:31:09.080Z,8.54
2023-04-20T21:33:37.071Z,8.57
2023-04-20T21:36:05.192Z,8.37
2023-04-20T21:38:33.081Z,8.45
2023-04-20T21:41:00.985Z,8.35
2023-04-20T21:43:28.754Z,8.30
2023-04-20T21:45:57.038Z,8.25
2023-04-20T21:48:24.950Z,8.26
2023-04-20T21:50:52.858Z,8.29
2023-04-20T21:53:20.873Z,8.35
2023-04-20T21:55:48.962Z,8.21
2023-04-20T21:58:17.171Z,8.17
2023-04-20T22:00:44.961Z,8.24
2023-04-20T22:03:13.023Z,8.25
2023-04-20T22:05:41.308Z,8.17
2023-04-20T22:08:09.168Z,8.17
2023-04-20T22:10:36.916Z,8.17
2023-04-20T22:13:04.684Z,8.24
2023-04-20T22:15:32.625Z,8.10
2023-04-20T22:18:00.886Z,8.01
2023-04-20T22:20:28.796Z,8.05
2023-04-20T22:22:57.683Z,8.02
2023-04-20T22:25:25.463Z,7.94
2023-04-20T22:27:53.202Z,7.82
2023-04-20T22:30:21.197Z,7.98
2023-04-20T22:32:49.032Z,8.10
2023-04-20T22:35:17.154Z,8.13
2023-04-20T22:37:45.001Z,8.05
2023-04-20T22:40:17.702Z,8.05
2023-04-20T22:42:45.584Z,8.03
2023-04-20T22:45:13.454Z,8.09
2023-04-20T22:47:41.754Z,8.08
2023-04-20T22:50:12.048Z,8.06
2023-04-20T22:52:40.664Z,8.09
2023-04-20T22:55:10.652Z,8.05
2023-04-20T22:57:39.315Z,8.05
2023-04-20T23:00:11.004Z,7.91
2023-04-20T23:02:39.075Z,7.96
2023-04-20T23:05:07.563Z,7.82
2023-04-20T23:07:35.897Z,7.88
2023-04-20T23:10:04.668Z,7.92
2023-04-20T23:12:33.606Z,7.82
2023-04-20T23:15:01.935Z,7.95
2023-04-20T23:17:30.078Z,7.92
2023-04-20T23:19:59.695Z,7.92
2023-04-20T23:22:28.057Z,7.92
2023-04-20T23:24:57.566Z,7.94
2023-04-20T23:27:25.529Z,7.87
2023-04-20T23:29:53.324Z,7.89
2023-04-20T23:32:21.187Z,7.94
2023-04-20T23:34:49.029Z,7.81
2023-04-20T23:37:16.926Z,7.79
2023-04-20T23:39:44.800Z,7.79
2023-04-20T23:42:12.679Z,7.75
2023-04-20T23:44:40.611Z,7.77
2023-04-20T23:47:08.468Z,7.81
2023-04-20T23:49:36.266Z,7.77
2023-04-20T23:52:04.152Z,7.84
2023-04-20T23:54:33.416Z,7.84
2023-04-20T23:57:01.471Z,7.78
2023-04-20T23:59:29.611Z,7.82
